sensor_id;sensor_type;location;lat;lon;timestamp;temperature;humidity
8736;DHT22;4404;49.308;12.178;2022-08-21T00:05:01;18.70;99.90
8736;DHT22;4404;49.308;12.178;2022-08-21T00:11:06;18.70;99.90
8736;DHT22;4404;49.308;12.178;2022-08-21T00:17:08;18.60;99.90
8736;DHT22;4404;49.308;12.178;2022-08-21T00:23:12;18.60;99.90
8736;DHT22;4404;49.308;12.178;2022-08-21T00:29:15;18.50;99.90
8736;DHT22;4404;49.308;12.178;2022-08-21T00:35:22;18.50;99.90
8736;DHT22;4404;49.308;12.178;2022-08-21T00:41:27;18.50;99.90
8736;DHT22;4404;49.308;12.178;2022-08-21T00:47:29;18.50;99.90
8736;DHT22;4404;49.308;12.178;2022-08-21T00:53:33;18.60;99.90
8736;DHT22;4404;49.308;12.178;2022-08-21T00:59:40;18.60;99.90
8736;DHT22;4404;49.308;12.178;2022-08-21T01:05:44;18.60;99.90
8736;DHT22;4404;49.308;12.178;2022-08-21T01:11:47;18.70;99.90
8736;DHT22;4404;49.308;12.178;2022-08-21T01:17:53;18.60;99.90
8736;DHT22;4404;49.308;12.178;2022-08-21T01:24:17;18.60;99.90
8736;DHT22;4404;49.308;12.178;2022-08-21T01:30:24;18.60;99.90
8736;DHT22;4404;49.308;12.178;2022-08-21T01:36:44;18.60;99.90
8736;DHT22;4404;49.308;12.178;2022-08-21T01:42:49;18.50;99.90
8736;DHT22;4404;49.308;12.178;2022-08-21T01:48:51;18.60;99.90
8736;DHT22;4404;49.308;12.178;2022-08-21T01:54:54;18.60;99.90
8736;DHT22;4404;49.308;12.178;2022-08-21T02:00:57;18.40;99.90
8736;DHT22;4404;49.308;12.178;2022-08-21T02:07:01;18.40;99.90
8736;DHT22;4404;49.308;12.178;2022-08-21T02:13:04;18.50;99.90
8736;DHT22;4404;49.308;12.178;2022-08-21T02:19:09;18.50;99.90
8736;DHT22;4404;49.308;12.178;2022-08-21T02:25:12;18.60;99.90
8736;DHT22;4404;49.308;12.178;2022-08-21T02:31:14;18.60;99.90
8736;DHT22;4404;49.308;12.178;2022-08-21T02:37:18;18.60;99.90
8736;DHT22;4404;49.308;12.178;2022-08-21T02:43:23;18.60;99.90
8736;DHT22;4404;49.308;12.178;2022-08-21T02:49:26;18.70;99.90
8736;DHT22;4404;49.308;12.178;2022-08-21T02:55:31;18.70;99.90
8736;DHT22;4404;49.308;12.178;2022-08-21T03:01:34;18.70;99.90
8736;DHT22;4404;49.308;12.178;2022-08-21T03:07:38;18.70;99.90
8736;DHT22;4404;49.308;12.178;2022-08-21T03:13:42;18.70;99.90
8736;DHT22;4404;49.308;12.178;2022-08-21T03:19:44;18.70;99.90
8736;DHT22;4404;49.308;12.178;2022-08-21T03:25:47;18.70;99.90
8736;DHT22;4404;49.308;12.178;2022-08-21T03:31:54;18.60;99.90
8736;DHT22;4404;49.308;12.178;2022-08-21T03:37:56;18.70;99.90
8736;DHT22;4404;49.308;12.178;2022-08-21T03:43:58;18.70;99.90
8736;DHT22;4404;49.308;12.178;2022-08-21T03:50:03;18.70;99.90
8736;DHT22;4404;49.308;12.178;2022-08-21T03:56:06;18.70;99.90
8736;DHT22;4404;49.308;12.178;2022-08-21T04:02:09;18.70;99.90
8736;DHT22;4404;49.308;12.178;2022-08-21T04:08:15;18.60;99.90
8736;DHT22;4404;49.308;12.178;2022-08-21T04:14:19;18.60;99.90
8736;DHT22;4404;49.308;12.178;2022-08-21T04:20:22;18.60;99.90
8736;DHT22;4404;49.308;12.178;2022-08-21T04:26:27;18.60;99.90
8736;DHT22;4404;49.308;12.178;2022-08-21T04:32:31;18.70;99.90
8736;DHT22;4404;49.308;12.178;2022-08-21T04:38:33;18.70;99.90
8736;DHT22;4404;49.308;12.178;2022-08-21T04:44:37;18.60;99.90
8736;DHT22;4404;49.308;12.178;2022-08-21T04:50:43;18.60;99.90
8736;DHT22;4404;49.308;12.178;2022-08-21T04:56:51;18.60;99.90
8736;DHT22;4404;49.308;12.178;2022-08-21T05:02:58;18.60;99.90
8736;DHT22;4404;49.308;12.178;2022-08-21T05:09:02;18.60;99.90
8736;DHT22;4404;49.308;12.178;2022-08-21T05:15:06;18.60;99.90
8736;DHT22;4404;49.308;12.178;2022-08-21T05:21:10;18.60;99.90
8736;DHT22;4404;49.308;12.178;2022-08-21T05:27:12;18.50;99.90
8736;DHT22;4404;49.308;12.178;2022-08-21T05:33:14;18.50;99.90
8736;DHT22;4404;49.308;12.178;2022-08-21T05:39:18;18.60;99.90
8736;DHT22;4404;49.308;12.178;2022-08-21T05:45:21;18.60;99.90
8736;DHT22;4404;49.308;12.178;2022-08-21T05:51:24;18.70;99.90
8736;DHT22;4404;49.308;12.178;2022-08-21T05:57:27;18.60;99.90
8736;DHT22;4404;49.308;12.178;2022-08-21T06:03:31;18.50;99.90
8736;DHT22;4404;49.308;12.178;2022-08-21T06:09:34;18.60;99.90
8736;DHT22;4404;49.308;12.178;2022-08-21T06:15:39;18.60;99.90
8736;DHT22;4404;49.308;12.178;2022-08-21T06:21:43;18.60;99.90
8736;DHT22;4404;49.308;12.178;2022-08-21T06:27:46;18.60;99.90
8736;DHT22;4404;49.308;12.178;2022-08-21T06:33:50;18.60;99.90
8736;DHT22;4404;49.308;12.178;2022-08-21T06:39:52;18.50;99.90
8736;DHT22;4404;49.308;12.178;2022-08-21T06:45:55;18.50;99.90
8736;DHT22;4404;49.308;12.178;2022-08-21T06:51:58;18.50;99.90
8736;DHT22;4404;49.308;12.178;2022-08-21T06:58:02;18.50;99.90
8736;DHT22;4404;49.308;12.178;2022-08-21T07:04:05;18.50;99.90
8736;DHT22;4404;49.308;12.178;2022-08-21T07:10:09;18.50;99.90
8736;DHT22;4404;49.308;12.178;2022-08-21T07:16:12;18.60;99.90
8736;DHT22;4404;49.308;12.178;2022-08-21T07:22:16;18.60;99.90
8736;DHT22;4404;49.308;12.178;2022-08-21T07:28:21;18.60;99.90
8736;DHT22;4404;49.308;12.178;2022-08-21T07:34:23;18.70;99.90
8736;DHT22;4404;49.308;12.178;2022-08-21T07:40:26;18.80;99.90
8736;DHT22;4404;49.308;12.178;2022-08-21T07:46:29;18.80;99.90
8736;DHT22;4404;49.308;12.178;2022-08-21T07:52:32;18.90;99.90
8736;DHT22;4404;49.308;12.178;2022-08-21T07:58:34;18.80;99.90
8736;DHT22;4404;49.308;12.178;2022-08-21T08:04:38;18.90;99.90
8736;DHT22;4404;49.308;12.178;2022-08-21T08:10:40;18.90;99.90
8736;DHT22;4404;49.308;12.178;2022-08-21T08:16:43;18.90;99.90
8736;DHT22;4404;49.308;12.178;2022-08-21T08:22:47;18.90;99.90
8736;DHT22;4404;49.308;12.178;2022-08-21T08:28:50;18.90;99.90
8736;DHT22;4404;49.308;12.178;2022-08-21T08:34:52;19.00;99.90
8736;DHT22;4404;49.308;12.178;2022-08-21T08:41:01;19.00;99.90
8736;DHT22;4404;49.308;12.178;2022-08-21T08:47:09;19.10;99.90
8736;DHT22;4404;49.308;12.178;2022-08-21T08:53:17;19.10;99.90
8736;DHT22;4404;49.308;12.178;2022-08-21T08:59:27;19.20;99.90
8736;DHT22;4404;49.308;12.178;2022-08-21T09:05:42;19.20;99.90
8736;DHT22;4404;49.308;12.178;2022-08-21T09:11:52;19.20;99.90
8736;DHT22;4404;49.308;12.178;2022-08-21T09:18:13;19.20;99.90
8736;DHT22;4404;49.308;12.178;2022-08-21T09:24:29;19.30;99.90
8736;DHT22;4404;49.308;12.178;2022-08-21T09:30:34;19.30;99.90
8736;DHT22;4404;49.308;12.178;2022-08-21T09:36:40;19.20;99.90
8736;DHT22;4404;49.308;12.178;2022-08-21T09:42:54;19.20;99.90
8736;DHT22;4404;49.308;12.178;2022-08-21T09:48:59;19.20;99.90
8736;DHT22;4404;49.308;12.178;2022-08-21T09:55:04;19.10;99.90
8736;DHT22;4404;49.308;12.178;2022-08-21T10:01:27;19.00;99.90
8736;DHT22;4404;49.308;12.178;2022-08-21T10:07:31;19.10;99.90
8736;DHT22;4404;49.308;12.178;2022-08-21T10:13:47;19.10;99.90
8736;DHT22;4404;49.308;12.178;2022-08-21T10:20:00;19.20;99.90
8736;DHT22;4404;49.308;12.178;2022-08-21T10:26:14;19.20;99.90
8736;DHT22;4404;49.308;12.178;2022-08-21T10:32:37;19.20;99.90
8736;DHT22;4404;49.308;12.178;2022-08-21T10:39:06;19.50;99.90
8736;DHT22;4404;49.308;12.178;2022-08-21T10:45:24;19.90;99.90
8736;DHT22;4404;49.308;12.178;2022-08-21T10:51:40;20.40;99.90
8736;DHT22;4404;49.308;12.178;2022-08-21T10:57:49;20.80;99.90
8736;DHT22;4404;49.308;12.178;2022-08-21T11:04:04;21.20;99.90
8736;DHT22;4404;49.308;12.178;2022-08-21T11:10:18;21.40;99.90
8736;DHT22;4404;49.308;12.178;2022-08-21T11:16:26;21.60;99.90
8736;DHT22;4404;49.308;12.178;2022-08-21T11:22:40;21.80;99.90
8736;DHT22;4404;49.308;12.178;2022-08-21T11:28:54;22.10;99.90
8736;DHT22;4404;49.308;12.178;2022-08-21T11:35:04;22.40;99.90
8736;DHT22;4404;49.308;12.178;2022-08-21T11:41:20;22.60;99.90
8736;DHT22;4404;49.308;12.178;2022-08-21T11:47:36;22.70;99.90
8736;DHT22;4404;49.308;12.178;2022-08-21T11:53:49;22.90;99.90
8736;DHT22;4404;49.308;12.178;2022-08-21T12:00:00;23.10;99.90
8736;DHT22;4404;49.308;12.178;2022-08-21T12:06:11;23.30;99.90
8736;DHT22;4404;49.308;12.178;2022-08-21T12:12:24;23.40;99.90
8736;DHT22;4404;49.308;12.178;2022-08-21T12:18:30;23.50;99.90
8736;DHT22;4404;49.308;12.178;2022-08-21T12:24:37;23.60;99.90
8736;DHT22;4404;49.308;12.178;2022-08-21T12:30:43;23.80;99.90
8736;DHT22;4404;49.308;12.178;2022-08-21T12:36:53;24.10;99.90
8736;DHT22;4404;49.308;12.178;2022-08-21T12:43:05;24.20;99.90
8736;DHT22;4404;49.308;12.178;2022-08-21T12:49:16;24.40;99.90
8736;DHT22;4404;49.308;12.178;2022-08-21T12:55:27;24.60;99.90
8736;DHT22;4404;49.308;12.178;2022-08-21T13:01:33;24.80;99.90
8736;DHT22;4404;49.308;12.178;2022-08-21T13:07:37;24.90;99.90
8736;DHT22;4404;49.308;12.178;2022-08-21T13:13:40;25.00;98.60
8736;DHT22;4404;49.308;12.178;2022-08-21T13:19:53;25.10;99.90
8736;DHT22;4404;49.308;12.178;2022-08-21T13:25:57;25.10;97.20
8736;DHT22;4404;49.308;12.178;2022-08-21T13:32:02;25.30;95.60
8736;DHT22;4404;49.308;12.178;2022-08-21T13:38:08;25.50;94.60
8736;DHT22;4404;49.308;12.178;2022-08-21T13:44:16;25.70;90.80
8736;DHT22;4404;49.308;12.178;2022-08-21T13:50:22;25.70;90.20
8736;DHT22;4404;49.308;12.178;2022-08-21T13:56:28;25.70;89.90
8736;DHT22;4404;49.308;12.178;2022-08-21T14:02:38;25.60;84.60
8736;DHT22;4404;49.308;12.178;2022-08-21T14:08:46;25.30;87.30
8736;DHT22;4404;49.308;12.178;2022-08-21T14:14:53;25.10;86.90
8736;DHT22;4404;49.308;12.178;2022-08-21T14:21:08;24.90;90.30
8736;DHT22;4404;49.308;12.178;2022-08-21T14:27:11;25.00;91.00
8736;DHT22;4404;49.308;12.178;2022-08-21T14:33:20;25.10;90.90
8736;DHT22;4404;49.308;12.178;2022-08-21T14:39:25;25.10;90.20
8736;DHT22;4404;49.308;12.178;2022-08-21T14:45:29;24.90;89.90
8736;DHT22;4404;49.308;12.178;2022-08-21T14:51:34;24.70;88.20
8736;DHT22;4404;49.308;12.178;2022-08-21T14:57:36;24.70;86.80
8736;DHT22;4404;49.308;12.178;2022-08-21T15:15:47;25.40;82.20
8736;DHT22;4404;49.308;12.178;2022-08-21T15:21:52;25.50;82.10
8736;DHT22;4404;49.308;12.178;2022-08-21T15:27:56;25.60;82.00
8736;DHT22;4404;49.308;12.178;2022-08-21T15:33:58;25.70;81.60
8736;DHT22;4404;49.308;12.178;2022-08-21T15:40:00;25.70;79.30
8736;DHT22;4404;49.308;12.178;2022-08-21T15:46:05;25.80;81.30
8736;DHT22;4404;49.308;12.178;2022-08-21T15:52:07;25.90;80.90
8736;DHT22;4404;49.308;12.178;2022-08-21T15:58:13;25.90;80.80
8736;DHT22;4404;49.308;12.178;2022-08-21T16:04:22;25.90;80.70
8736;DHT22;4404;49.308;12.178;2022-08-21T16:10:26;25.80;81.90
8736;DHT22;4404;49.308;12.178;2022-08-21T16:16:29;25.80;80.30
8736;DHT22;4404;49.308;12.178;2022-08-21T16:22:33;25.70;80.80
8736;DHT22;4404;49.308;12.178;2022-08-21T16:28:37;25.60;79.30
8736;DHT22;4404;49.308;12.178;2022-08-21T16:34:45;25.60;80.50
8736;DHT22;4404;49.308;12.178;2022-08-21T16:40:50;25.50;80.80
8736;DHT22;4404;49.308;12.178;2022-08-21T16:46:52;25.40;81.70
8736;DHT22;4404;49.308;12.178;2022-08-21T16:52:55;25.20;82.60
8736;DHT22;4404;49.308;12.178;2022-08-21T16:58:59;25.10;82.70
8736;DHT22;4404;49.308;12.178;2022-08-21T17:05:01;25.20;85.50
8736;DHT22;4404;49.308;12.178;2022-08-21T17:11:06;25.10;84.80
8736;DHT22;4404;49.308;12.178;2022-08-21T17:17:10;25.10;85.60
8736;DHT22;4404;49.308;12.178;2022-08-21T17:23:13;24.90;85.10
8736;DHT22;4404;49.308;12.178;2022-08-21T17:29:19;24.70;85.60
8736;DHT22;4404;49.308;12.178;2022-08-21T17:35:27;24.50;85.00
8736;DHT22;4404;49.308;12.178;2022-08-21T17:41:29;24.40;86.00
8736;DHT22;4404;49.308;12.178;2022-08-21T17:47:31;24.20;86.50
8736;DHT22;4404;49.308;12.178;2022-08-21T17:53:35;24.00;94.50
8736;DHT22;4404;49.308;12.178;2022-08-21T17:59:37;23.80;96.00
8736;DHT22;4404;49.308;12.178;2022-08-21T18:05:41;23.50;96.50
8736;DHT22;4404;49.308;12.178;2022-08-21T18:11:44;23.20;96.80
8736;DHT22;4404;49.308;12.178;2022-08-21T18:17:49;22.90;97.20
8736;DHT22;4404;49.308;12.178;2022-08-21T18:23:55;22.80;97.70
8736;DHT22;4404;49.308;12.178;2022-08-21T18:30:13;22.50;98.30
8736;DHT22;4404;49.308;12.178;2022-08-21T18:36:18;22.30;99.00
8736;DHT22;4404;49.308;12.178;2022-08-21T18:42:20;22.10;99.30
8736;DHT22;4404;49.308;12.178;2022-08-21T18:48:26;22.00;99.90
8736;DHT22;4404;49.308;12.178;2022-08-21T18:54:32;21.80;99.20
8736;DHT22;4404;49.308;12.178;2022-08-21T19:00:36;21.70;99.90
8736;DHT22;4404;49.308;12.178;2022-08-21T19:06:46;21.60;99.90
8736;DHT22;4404;49.308;12.178;2022-08-21T19:12:49;21.50;99.90
8736;DHT22;4404;49.308;12.178;2022-08-21T19:18:51;21.40;99.90
8736;DHT22;4404;49.308;12.178;2022-08-21T19:24:55;21.40;99.90
8736;DHT22;4404;49.308;12.178;2022-08-21T19:31:01;21.30;99.90
8736;DHT22;4404;49.308;12.178;2022-08-21T19:37:10;21.20;99.90
8736;DHT22;4404;49.308;12.178;2022-08-21T19:43:17;21.10;99.90
8736;DHT22;4404;49.308;12.178;2022-08-21T19:49:22;21.10;99.90
8736;DHT22;4404;49.308;12.178;2022-08-21T19:55:26;21.00;99.90
8736;DHT22;4404;49.308;12.178;2022-08-21T20:01:30;21.00;99.90
8736;DHT22;4404;49.308;12.178;2022-08-21T20:07:32;21.00;99.90
8736;DHT22;4404;49.308;12.178;2022-08-21T20:13:34;20.90;99.90
8736;DHT22;4404;49.308;12.178;2022-08-21T20:19:40;20.70;99.90
8736;DHT22;4404;49.308;12.178;2022-08-21T20:25:43;20.70;99.90
8736;DHT22;4404;49.308;12.178;2022-08-21T20:31:46;20.60;99.90
8736;DHT22;4404;49.308;12.178;2022-08-21T20:37:50;20.50;99.90
8736;DHT22;4404;49.308;12.178;2022-08-21T20:43:54;20.50;99.90
8736;DHT22;4404;49.308;12.178;2022-08-21T20:50:01;20.40;99.90
8736;DHT22;4404;49.308;12.178;2022-08-21T20:56:10;20.30;99.90
8736;DHT22;4404;49.308;12.178;2022-08-21T21:02:30;20.30;99.90
8736;DHT22;4404;49.308;12.178;2022-08-21T21:08:43;20.20;99.90
8736;DHT22;4404;49.308;12.178;2022-08-21T21:14:53;20.20;99.90
8736;DHT22;4404;49.308;12.178;2022-08-21T21:21:02;20.10;99.90
8736;DHT22;4404;49.308;12.178;2022-08-21T21:27:13;20.10;99.90
8736;DHT22;4404;49.308;12.178;2022-08-21T21:33:20;20.00;99.90
8736;DHT22;4404;49.308;12.178;2022-08-21T21:39:27;20.10;99.90
8736;DHT22;4404;49.308;12.178;2022-08-21T21:45:39;19.90;99.90
8736;DHT22;4404;49.308;12.178;2022-08-21T21:52:05;19.90;99.90
8736;DHT22;4404;49.308;12.178;2022-08-21T21:58:36;19.80;99.90
8736;DHT22;4404;49.308;12.178;2022-08-21T22:05:00;19.80;99.90
8736;DHT22;4404;49.308;12.178;2022-08-21T22:11:14;19.80;99.90
8736;DHT22;4404;49.308;12.178;2022-08-21T22:17:32;19.70;99.90
8736;DHT22;4404;49.308;12.178;2022-08-21T22:23:41;19.60;99.90
8736;DHT22;4404;49.308;12.178;2022-08-21T22:29:50;19.60;99.90
8736;DHT22;4404;49.308;12.178;2022-08-21T22:35:55;19.40;99.90
8736;DHT22;4404;49.308;12.178;2022-08-21T22:42:05;19.30;99.90
8736;DHT22;4404;49.308;12.178;2022-08-21T22:48:11;19.20;99.90
8736;DHT22;4404;49.308;12.178;2022-08-21T22:54:25;19.00;99.90
8736;DHT22;4404;49.308;12.178;2022-08-21T23:00:40;18.90;99.90
8736;DHT22;4404;49.308;12.178;2022-08-21T23:06:50;19.00;99.90
8736;DHT22;4404;49.308;12.178;2022-08-21T23:13:00;18.90;99.90
8736;DHT22;4404;49.308;12.178;2022-08-21T23:19:10;18.90;99.90
8736;DHT22;4404;49.308;12.178;2022-08-21T23:25:52;18.80;99.90
8736;DHT22;4404;49.308;12.178;2022-08-21T23:32:18;18.70;99.90
8736;DHT22;4404;49.308;12.178;2022-08-21T23:38:37;18.50;99.90
8736;DHT22;4404;49.308;12.178;2022-08-21T23:44:55;18.60;99.90
8736;DHT22;4404;49.308;12.178;2022-08-21T23:51:09;18.50;99.90
8736;DHT22;4404;49.308;12.178;2022-08-21T23:57:18;18.50;99.90
